Time,TemperatureF,DewpointF,PressureIn,WindDirection,WindDirectionDegrees,WindSpeedMPH,WindSpeedGustMPH,Humidity,HourlyPrecipIn,Conditions,Clouds,dailyrainin,SolarRadiationWatts/m^2,SoftwareType,DateUTC
2013-05-07 08:15:00,65.1,50.9,29.85,ENE,72,4.0,4.0,60,0.00,,,0.00,633,Wunderground v.1.15,2013-05-07 14:15:00,
2013-05-07 08:20:00,65.6,51.3,29.84,ENE,77,4.0,6.0,60,0.00,,,0.00,647,Wunderground v.1.15,2013-05-07 14:20:00,
2013-05-07 08:25:00,65.8,50.6,29.84,NE,53,3.0,3.0,58,0.00,,,0.00,659,Wunderground v.1.15,2013-05-07 14:25:00,
2013-05-07 08:30:00,65.9,51.6,29.84,East,88,4.0,5.0,60,0.00,,,0.00,675,Wunderground v.1.15,2013-05-07 14:30:00,
2013-05-07 08:35:00,65.9,50.7,29.85,ENE,58,5.0,5.0,58,0.00,,,0.00,694,Wunderground v.1.15,2013-05-07 14:35:00,
2013-05-07 08:40:00,66.0,50.8,29.85,NNE,22,6.0,6.0,58,0.00,,,0.00,710,Wunderground v.1.15,2013-05-07 14:40:00,
2013-05-07 08:45:00,66.2,51.0,29.85,ENE,72,5.0,5.0,58,0.00,,,0.00,726,Wunderground v.1.15,2013-05-07 14:45:00,
2013-05-07 08:50:00,66.7,51.0,29.84,NE,55,5.0,8.0,57,0.00,,,0.00,745,Wunderground v.1.15,2013-05-07 14:50:00,
2013-05-07 08:55:00,67.0,50.3,29.84,NNE,28,6.0,6.0,55,0.00,,,0.00,759,Wunderground v.1.15,2013-05-07 14:55:00,
2013-05-07 09:00:00,67.4,51.2,29.85,NE,44,8.0,8.0,56,0.00,,,0.00,772,Wunderground v.1.15,2013-05-07 15:00:00,
2013-05-07 09:05:00,67.7,50.9,29.85,NNE,19,7.0,13.0,55,0.00,,,0.00,784,Wunderground v.1.15,2013-05-07 15:05:00,
2013-05-07 09:10:00,68.2,50.9,29.85,NNE,32,6.0,13.0,54,0.00,,,0.00,795,Wunderground v.1.15,2013-05-07 15:10:00,
2013-05-07 09:15:00,68.4,51.1,29.85,NNE,30,7.0,13.0,54,0.00,,,0.00,805,Wunderground v.1.15,2013-05-07 15:15:00,
2013-05-07 09:20:00,68.9,51.6,29.84,NE,42,6.0,13.0,54,0.00,,,0.00,824,Wunderground v.1.15,2013-05-07 15:20:00,
2013-05-07 09:25:00,69.5,49.5,29.85,NE,51,4.0,13.0,49,0.00,,,0.00,835,Wunderground v.1.15,2013-05-07 15:25:00,
2013-05-07 09:30:00,69.7,51.3,29.85,NE,46,5.0,13.0,52,0.00,,,0.00,842,Wunderground v.1.15,2013-05-07 15:30:00,
2013-05-07 09:35:00,69.6,50.7,29.85,East,81,7.0,13.0,51,0.00,,,0.00,860,Wunderground v.1.15,2013-05-07 15:35:00,
2013-05-07 09:40:00,69.4,49.9,29.85,NE,46,8.0,13.0,50,0.00,,,0.00,872,Wunderground v.1.15,2013-05-07 15:40:00,
2013-05-07 09:45:00,69.6,50.7,29.85,ENE,67,7.0,13.0,51,0.00,,,0.00,877,Wunderground v.1.15,2013-05-07 15:45:00,
2013-05-07 09:50:00,69.5,48.4,29.85,NE,53,7.0,13.0,47,0.00,,,0.00,888,Wunderground v.1.15,2013-05-07 15:50:00,
2013-05-07 09:55:00,69.8,49.2,29.85,North,5,9.0,14.0,48,0.00,,,0.00,898,Wunderground v.1.15,2013-05-07 15:55:00,
2013-05-07 10:00:00,70.0,48.8,29.84,ENE,70,9.0,9.0,47,0.00,,,0.00,902,Wunderground v.1.15,2013-05-07 16:00:00,
2013-05-07 10:05:00,70.6,48.8,29.85,SE,129,7.0,13.0,46,0.00,,,0.00,912,Wunderground v.1.15,2013-05-07 16:05:00,
2013-05-07 10:10:00,71.2,49.4,29.84,East,87,4.0,13.0,46,0.00,,,0.00,926,Wunderground v.1.15,2013-05-07 16:10:00,
2013-05-07 10:15:00,71.7,49.8,29.84,North,5,3.0,13.0,46,0.00,,,0.00,933,Wunderground v.1.15,2013-05-07 16:15:00,
2013-05-07 10:20:00,71.8,47.5,29.84,East,88,4.0,13.0,42,0.00,,,0.00,942,Wunderground v.1.15,2013-05-07 16:20:00,
2013-05-07 10:25:00,71.5,48.4,29.84,East,97,5.0,13.0,44,0.00,,,0.00,949,Wunderground v.1.15,2013-05-07 16:25:00,
2013-05-07 10:30:00,71.6,48.5,29.84,NE,40,5.0,13.0,44,0.00,,,0.00,954,Wunderground v.1.15,2013-05-07 16:30:00,
2013-05-07 10:35:00,71.7,47.4,29.84,SE,126,7.0,13.0,42,0.00,,,0.00,965,Wunderground v.1.15,2013-05-07 16:35:00,
2013-05-07 10:40:00,71.8,47.5,29.84,ESE,108,7.0,7.0,42,0.00,,,0.00,963,Wunderground v.1.15,2013-05-07 16:40:00,
2013-05-07 10:45:00,71.6,46.6,29.84,NNE,29,5.0,11.0,41,0.00,,,0.00,969,Wunderground v.1.15,2013-05-07 16:45:00,
2013-05-07 10:50:00,71.6,47.3,29.83,NNE,28,5.0,5.0,42,0.00,,,0.00,977,Wunderground v.1.15,2013-05-07 16:50:00,
2013-05-07 10:55:00,72.4,46.0,29.84,ENE,57,4.0,7.0,39,0.00,,,0.00,986,Wunderground v.1.15,2013-05-07 16:55:00,
2013-05-07 11:00:00,72.2,46.5,29.83,NNW,342,3.0,13.0,40,0.00,,,0.00,983,Wunderground v.1.15,2013-05-07 17:00:00,
2013-05-07 11:05:00,71.2,45.0,29.83,NE,34,9.0,13.0,39,0.00,,,0.00,988,Wunderground v.1.15,2013-05-07 17:05:00,
2013-05-07 11:10:00,71.2,44.3,29.84,ESE,105,10.0,10.0,38,0.00,,,0.00,995,Wunderground v.1.15,2013-05-07 17:10:00,
2013-05-07 11:15:00,71.5,43.8,29.84,East,82,6.0,13.0,37,0.00,,,0.00,990,Wunderground v.1.15,2013-05-07 17:15:00,
2013-05-07 11:20:00,71.9,44.2,29.83,NNE,17,5.0,13.0,37,0.00,,,0.00,991,Wunderground v.1.15,2013-05-07 17:20:00,
2013-05-07 11:25:00,71.9,44.2,29.83,NE,55,8.0,13.0,37,0.00,,,0.00,998,Wunderground v.1.15,2013-05-07 17:25:00,
2013-05-07 11:30:00,72.2,43.0,29.83,NE,44,9.0,9.0,35,0.00,,,0.00,995,Wunderground v.1.15,2013-05-07 17:30:00,
2013-05-07 11:35:00,72.6,43.4,29.83,North,355,7.0,13.0,35,0.00,,,0.00,993,Wunderground v.1.15,2013-05-07 17:35:00,
2013-05-07 11:40:00,72.7,43.5,29.83,ENE,60,7.0,13.0,35,0.00,,,0.00,1000,Wunderground v.1.15,2013-05-07 17:40:00,
2013-05-07 11:45:00,73.1,41.5,29.83,NNE,24,7.0,13.0,32,0.00,,,0.00,995,Wunderground v.1.15,2013-05-07 17:45:00,
2013-05-07 11:55:00,73.4,41.7,29.82,North,355,8.0,17.0,32,0.00,,,0.00,993,Wunderground v.1.15,2013-05-07 17:55:00,
2013-05-07 12:00:00,72.9,40.5,29.82,North,9,9.0,13.0,31,0.00,,,0.00,988,Wunderground v.1.15,2013-05-07 18:00:00,
2013-05-07 12:05:00,72.7,41.9,29.82,NE,38,12.0,13.0,33,0.00,,,0.00,988,Wunderground v.1.15,2013-05-07 18:05:00,
2013-05-07 12:10:00,72.5,41.7,29.82,NE,53,11.0,11.0,33,0.00,,,0.00,983,Wunderground v.1.15,2013-05-07 18:10:00,
2013-05-07 12:15:00,73.0,43.0,29.82,North,355,8.0,13.0,34,0.00,,,0.00,984,Wunderground v.1.15,2013-05-07 18:15:00,
2013-05-07 12:20:00,72.9,41.3,29.82,NNE,24,9.0,13.0,32,0.00,,,0.00,977,Wunderground v.1.15,2013-05-07 18:20:00,
2013-05-07 12:25:00,73.1,42.3,29.82,NE,38,9.0,14.0,33,0.00,,,0.00,970,Wunderground v.1.15,2013-05-07 18:25:00,
2013-05-07 12:30:00,72.9,42.1,29.82,ENE,60,8.0,16.0,33,0.00,,,0.00,969,Wunderground v.1.15,2013-05-07 18:30:00,
2013-05-07 12:35:00,73.1,43.1,29.81,NNE,25,8.0,16.0,34,0.00,,,0.00,963,Wunderground v.1.15,2013-05-07 18:35:00,
2013-05-07 12:40:00,73.0,43.0,29.81,NNE,30,10.0,13.0,34,0.00,,,0.00,958,Wunderground v.1.15,2013-05-07 18:40:00,
2013-05-07 12:45:00,72.8,42.8,29.81,NE,51,10.0,13.0,34,0.00,,,0.00,949,Wunderground v.1.15,2013-05-07 18:45:00,
2013-05-07 12:50:00,72.9,44.4,29.81,NNE,28,10.0,14.0,36,0.00,,,0.00,939,Wunderground v.1.15,2013-05-07 18:50:00,
2013-05-07 12:55:00,72.5,43.3,29.80,NNE,32,10.0,14.0,35,0.00,,,0.00,935,Wunderground v.1.15,2013-05-07 18:55:00,
2013-05-07 13:00:00,72.8,44.3,29.80,NNE,30,9.0,13.0,36,0.00,,,0.00,925,Wunderground v.1.15,2013-05-07 19:00:00,
2013-05-07 13:05:00,73.2,44.6,29.80,NE,56,7.0,13.0,36,0.00,,,0.00,918,Wunderground v.1.15,2013-05-07 19:05:00,
2013-05-07 13:10:00,73.1,45.3,29.80,NNE,24,7.0,7.0,37,0.00,,,0.00,907,Wunderground v.1.15,2013-05-07 19:10:00,
2013-05-07 13:15:00,72.9,45.8,29.80,North,5,8.0,13.0,38,0.00,,,0.00,893,Wunderground v.1.15,2013-05-07 19:15:00,
2013-05-07 13:20:00,72.4,46.0,29.80,NNE,27,9.0,9.0,39,0.00,,,0.00,882,Wunderground v.1.15,2013-05-07 19:20:00,
2013-05-07 13:25:00,72.7,46.3,29.79,NNE,30,7.0,13.0,39,0.00,,,0.00,872,Wunderground v.1.15,2013-05-07 19:25:00,
2013-05-07 13:30:00,72.6,47.5,29.79,NNE,16,7.0,13.0,41,0.00,,,0.00,860,Wunderground v.1.15,2013-05-07 19:30:00,
2013-05-07 13:35:00,73.0,47.2,29.79,NE,34,8.0,13.0,40,0.00,,,0.00,849,Wunderground v.1.15,2013-05-07 19:35:00,
2013-05-07 13:40:00,73.1,48.0,29.79,North,5,7.0,13.0,41,0.00,,,0.00,835,Wunderground v.1.15,2013-05-07 19:40:00,
2013-05-07 13:45:00,73.0,47.2,29.78,NE,42,8.0,13.0,40,0.00,,,0.00,823,Wunderground v.1.15,2013-05-07 19:45:00,
2013-05-07 13:50:00,73.0,47.2,29.79,North,5,9.0,9.0,40,0.00,,,0.00,814,Wunderground v.1.15,2013-05-07 19:50:00,
2013-05-07 13:55:00,72.9,46.5,29.78,NE,36,9.0,14.0,39,0.00,,,0.00,802,Wunderground v.1.15,2013-05-07 19:55:00,
2013-05-07 14:00:00,72.0,45.7,29.78,North,360,12.0,21.0,39,0.00,,,0.00,782,Wunderground v.1.15,2013-05-07 20:00:00,
2013-05-07 14:05:00,71.5,45.9,29.78,NNE,18,14.0,21.0,40,0.00,,,0.00,770,Wunderground v.1.15,2013-05-07 20:05:00,
2013-05-07 14:10:00,71.8,45.5,29.78,NNE,19,11.0,11.0,39,0.00,,,0.00,761,Wunderground v.1.15,2013-05-07 20:10:00,
2013-05-07 14:15:00,71.9,45.6,29.77,North,5,10.0,13.0,39,0.00,,,0.00,745,Wunderground v.1.15,2013-05-07 20:15:00,
2013-05-07 14:20:00,72.1,45.8,29.77,NE,44,10.0,10.0,39,0.00,,,0.00,733,Wunderground v.1.15,2013-05-07 20:20:00,
2013-05-07 16:45:00,68.5,48.0,29.76,ESE,105,4.0,5.0,48,0.00,,,0.00,190,Wunderground v.1.15,2013-05-07 22:45:00,